Time;durP1;ratioP1;P1;durP2;ratioP2;P2;SDS_P1;SDS_P2;PMS_P1;PMS_P2;Temp;Humidity;BMP_temperature;BMP_pressure;BME280_temperature;BME280_humidity;BME280_pressure;Samples;Min_cycle;Max_cycle;Signal;HPM_P1;HPM_P2
2022/01/23 00:00:50;;;;;;;;;;;19.40;55.50;;;;;;5074356;28;1404;-68
2022/01/23 00:03:18;;;;;;;;;;;19.40;55.60;;;;;;5074208;28;1485;-69
2022/01/23 00:05:45;;;;;;;;;;;19.40;55.60;;;;;;5075354;28;1465;-69
2022/01/23 00:08:12;;;;;;;;;;;19.30;55.60;;;;;;5074060;28;1766;-69
2022/01/23 00:10:37;;;;;;;;;;;19.30;55.60;;;;;;5074958;28;1965;-69
2022/01/23 00:13:10;;;;;;;;;;;19.40;55.70;;;;;;5073946;28;1416;-69
2022/01/23 00:18:20;;;;;;;;;;;19.40;55.70;;;;;;5075136;28;1549;-67
2022/01/23 00:20:46;;;;;;;;;;;19.30;55.70;;;;;;5073650;28;1686;-67
2022/01/23 00:23:31;;;;;;;;;;;19.30;55.80;;;;;;5053504;28;1401;-67
2022/01/23 00:31:26;;;;;;;;;;;19.30;55.90;;;;;;5073858;28;1316;-67
2022/01/23 00:33:54;;;;;;;;;;;19.30;55.90;;;;;;5074967;28;1466;-68
2022/01/23 00:36:21;;;;;;;;;;;19.30;55.90;;;;;;5074879;28;1071;-68
2022/01/23 00:38:46;;;;;;;;;;;19.20;55.90;;;;;;5074622;28;1443;-67
2022/01/23 00:41:12;;;;;;;;;;;19.20;56.00;;;;;;5074522;28;1296;-68
2022/01/23 00:43:41;;;;;;;;;;;19.20;56.60;;;;;;5074639;28;1352;-68
2022/01/23 00:46:21;;;;;;;;;;;19.20;56.60;;;;;;5074725;28;1280;-67
2022/01/23 00:49:30;;;;;;;;;;;19.20;56.00;;;;;;5074345;28;1898;-67
2022/01/23 00:51:37;;;;;;;;;;;19.20;56.00;;;;;;5067736;28;1291;-68
2022/01/23 00:54:03;;;;;;;;;;;19.20;56.10;;;;;;5074686;28;1055;-67
2022/01/23 00:56:29;;;;;;;;;;;19.20;56.10;;;;;;5073097;28;1283;-67
2022/01/23 00:58:54;;;;;;;;;;;19.20;56.10;;;;;;5073139;28;1412;-67
2022/01/23 01:01:20;;;;;;;;;;;19.20;56.10;;;;;;5074098;28;1264;-68
2022/01/23 01:03:45;;;;;;;;;;;19.20;56.10;;;;;;5070991;28;1362;-67
2022/01/23 01:06:11;;;;;;;;;;;19.20;56.20;;;;;;5073031;28;1361;-68
2022/01/23 01:08:36;;;;;;;;;;;19.10;56.10;;;;;;5072856;28;1975;-68
2022/01/23 01:11:54;;;;;;;;;;;19.10;56.10;;;;;;5073830;28;1348;-68
2022/01/23 01:30:46;;;;;;;;;;;19.10;56.30;;;;;;5060337;28;2028;-67
2022/01/23 01:33:16;;;;;;;;;;;19.10;56.30;;;;;;5069725;28;1195;-67
2022/01/23 01:38:16;;;;;;;;;;;19.10;56.40;;;;;;5073796;28;1370;-68
2022/01/23 01:40:42;;;;;;;;;;;19.00;56.30;;;;;;5072167;28;1444;-68
2022/01/23 01:43:07;;;;;;;;;;;19.00;57.00;;;;;;5071937;28;1179;-68
2022/01/23 01:45:34;;;;;;;;;;;19.00;56.40;;;;;;5073474;28;1042;-67
2022/01/23 01:48:01;;;;;;;;;;;19.00;56.40;;;;;;5072069;28;1472;-67
2022/01/23 01:50:26;;;;;;;;;;;19.00;56.40;;;;;;5072010;28;1902;-67
2022/01/23 01:52:52;;;;;;;;;;;19.00;56.40;;;;;;5073372;28;1110;-67
2022/01/23 01:55:24;;;;;;;;;;;19.00;56.40;;;;;;5071002;28;1317;-68
2022/01/23 01:57:55;;;;;;;;;;;19.00;56.40;;;;;;5067556;28;1323;-67
2022/01/23 02:08:23;;;;;;;;;;;19.00;56.50;;;;;;5060406;28;1052;-68
2022/01/23 02:10:52;;;;;;;;;;;19.00;56.50;;;;;;5072817;28;1906;-67
2022/01/23 02:13:21;;;;;;;;;;;19.00;56.50;;;;;;5073368;28;1376;-68
2022/01/23 02:24:07;;;;;;;;;;;18.90;56.50;;;;;;5071998;28;1335;-67
2022/01/23 02:51:30;;;;;;;;;;;18.90;56.70;;;;;;5068310;28;1396;-67
2022/01/23 02:56:44;;;;;;;;;;;18.90;56.80;;;;;;5067505;28;969;-66
2022/01/23 02:59:21;;;;;;;;;;;18.90;56.70;;;;;;5061210;28;1288;-67
2022/01/23 03:02:01;;;;;;;;;;;18.90;56.80;;;;;;5066732;28;1372;-69
2022/01/23 03:04:26;;;;;;;;;;;18.80;56.80;;;;;;5068640;28;1424;-67
2022/01/23 03:07:11;;;;;;;;;;;18.90;56.80;;;;;;5064388;28;1218;-67
2022/01/23 03:15:06;;;;;;;;;;;18.80;56.80;;;;;;5014826;28;1254;-66
2022/01/23 03:28:34;;;;;;;;;;;18.80;56.80;;;;;;5062840;28;1350;-68
2022/01/23 03:33:28;;;;;;;;;;;18.80;56.80;;;;;;5063597;28;1326;-68
2022/01/23 03:35:54;;;;;;;;;;;18.80;56.90;;;;;;5065648;28;1145;-67
2022/01/23 03:38:19;;;;;;;;;;;18.80;56.90;;;;;;5066372;28;1370;-67
2022/01/23 03:40:45;;;;;;;;;;;18.80;56.90;;;;;;5064707;28;1351;-67
2022/01/23 03:43:13;;;;;;;;;;;18.80;56.90;;;;;;5071738;28;1464;-67
2022/01/23 03:50:50;;;;;;;;;;;18.80;56.90;;;;;;5072714;28;1985;-67
2022/01/23 03:53:16;;;;;;;;;;;18.80;56.90;;;;;;5074532;28;1375;-68
2022/01/23 03:55:41;;;;;;;;;;;18.80;56.90;;;;;;5075693;28;1105;-68
2022/01/23 03:58:07;;;;;;;;;;;18.80;57.00;;;;;;5075429;28;1067;-68
2022/01/23 04:00:32;;;;;;;;;;;18.80;56.90;;;;;;5075265;28;1336;-68
2022/01/23 04:02:58;;;;;;;;;;;18.80;57.00;;;;;;5074613;28;1076;-68
2022/01/23 04:05:23;;;;;;;;;;;18.80;57.00;;;;;;5075371;28;1092;-68
2022/01/23 04:07:49;;;;;;;;;;;18.70;56.90;;;;;;5075513;28;1023;-68
2022/01/23 04:10:17;;;;;;;;;;;18.70;56.90;;;;;;5095184;22;1977;-71
2022/01/23 04:13:00;;;;;;;;;;;18.80;57.00;;;;;;5058232;28;1221;-68
2022/01/23 04:18:37;;;;;;;;;;;18.70;57.00;;;;;;5074161;28;1774;-66
2022/01/23 04:20:52;;;;;;;;;;;18.70;57.00;;;;;;5075029;28;1704;-67
2022/01/23 04:34:33;;;;;;;;;;;18.70;57.10;;;;;;5074391;28;1588;-67
2022/01/23 04:45:26;;;;;;;;;;;18.70;57.10;;;;;;5075084;28;1391;-67
2022/01/23 05:01:21;;;;;;;;;;;18.70;57.10;;;;;;5074471;28;1622;-67
2022/01/23 05:06:37;;;;;;;;;;;18.70;57.20;;;;;;5074581;28;1435;-67
2022/01/23 05:09:04;;;;;;;;;;;18.70;57.10;;;;;;5074171;28;1902;-67
2022/01/23 05:11:30;;;;;;;;;;;18.70;57.10;;;;;;5074018;28;1368;-66
2022/01/23 05:13:55;;;;;;;;;;;18.80;57.00;;;;;;5074437;28;1381;-67
2022/01/23 05:16:20;;;;;;;;;;;18.80;57.00;;;;;;5074246;28;1367;-67
2022/01/23 05:18:46;;;;;;;;;;;19.00;56.90;;;;;;5073958;28;1449;-66
2022/01/23 05:21:40;;;;;;;;;;;19.00;56.80;;;;;;5074129;28;1357;-67
2022/01/23 05:24:01;;;;;;;;;;;19.10;56.70;;;;;;5072850;28;1404;-67
2022/01/23 05:26:27;;;;;;;;;;;19.30;56.30;;;;;;5074189;28;1367;-67
2022/01/23 05:28:52;;;;;;;;;;;19.50;56.10;;;;;;5072146;28;2425;-65
2022/01/23 05:31:18;;;;;;;;;;;19.60;55.70;;;;;;5072845;28;1270;-66
2022/01/23 05:33:43;;;;;;;;;;;19.70;55.40;;;;;;5073882;28;1719;-67
2022/01/23 05:36:09;;;;;;;;;;;19.90;55.10;;;;;;5073874;28;1670;-66
2022/01/23 05:38:34;;;;;;;;;;;20.00;54.80;;;;;;5072272;28;1711;-67
2022/01/23 05:41:01;;;;;;;;;;;20.10;54.50;;;;;;5073650;28;1391;-67
2022/01/23 05:43:26;;;;;;;;;;;20.30;54.30;;;;;;5073813;28;1436;-67
2022/01/23 05:45:52;;;;;;;;;;;20.40;54.00;;;;;;5073756;28;1357;-67
2022/01/23 05:48:17;;;;;;;;;;;20.50;53.70;;;;;;5073080;28;1737;-67
2022/01/23 05:50:43;;;;;;;;;;;20.60;53.50;;;;;;5073493;28;1898;-67
2022/01/23 05:53:08;;;;;;;;;;;20.60;53.30;;;;;;5073617;28;1648;-67
2022/01/23 05:55:34;;;;;;;;;;;20.70;53.10;;;;;;5073613;28;1664;-66
2022/01/23 05:57:59;;;;;;;;;;;20.80;52.90;;;;;;5073272;28;1439;-67
2022/01/23 06:00:25;;;;;;;;;;;20.80;52.70;;;;;;5073260;28;1673;-67
2022/01/23 06:02:50;;;;;;;;;;;20.90;52.60;;;;;;5072246;28;1437;-67
2022/01/23 06:05:16;;;;;;;;;;;21.00;52.50;;;;;;5072176;28;1693;-66
2022/01/23 06:07:42;;;;;;;;;;;21.00;52.40;;;;;;5073041;28;1664;-67
2022/01/23 06:10:08;;;;;;;;;;;21.10;52.30;;;;;;5073057;28;1961;-66
2022/01/23 06:12:34;;;;;;;;;;;21.10;52.20;;;;;;5072119;28;1420;-67
2022/01/23 06:14:59;;;;;;;;;;;21.10;52.10;;;;;;5071485;28;1381;-67
2022/01/23 06:17:24;;;;;;;;;;;21.20;52.00;;;;;;5066474;28;2091;-63
2022/01/23 06:19:50;;;;;;;;;;;21.20;52.00;;;;;;5062034;28;1882;-66
2022/01/23 06:22:15;;;;;;;;;;;21.20;51.90;;;;;;5069599;28;1358;-66
2022/01/23 06:24:46;;;;;;;;;;;21.30;51.90;;;;;;5073016;28;1516;-66
2022/01/23 06:27:12;;;;;;;;;;;21.30;51.90;;;;;;5071807;28;1650;-67
2022/01/23 06:29:38;;;;;;;;;;;21.30;51.90;;;;;;5071644;28;1897;-67
2022/01/23 06:32:04;;;;;;;;;;;21.30;51.90;;;;;;5067154;28;1741;-66
2022/01/23 06:34:29;;;;;;;;;;;21.30;51.90;;;;;;5072871;28;1676;-66
2022/01/23 06:36:55;;;;;;;;;;;21.30;52.00;;;;;;5072742;28;1359;-66
2022/01/23 06:39:20;;;;;;;;;;;21.30;52.00;;;;;;5071501;28;1215;-67
2022/01/23 06:41:46;;;;;;;;;;;21.30;52.00;;;;;;5072924;28;1666;-67
2022/01/23 06:44:11;;;;;;;;;;;21.30;52.10;;;;;;5073118;28;1221;-68
2022/01/23 06:46:39;;;;;;;;;;;21.30;52.10;;;;;;5072847;28;1440;-65
2022/01/23 06:49:05;;;;;;;;;;;21.30;52.10;;;;;;5072607;28;1906;-66
2022/01/23 06:51:30;;;;;;;;;;;21.30;52.10;;;;;;5072626;28;1352;-66
2022/01/23 06:53:56;;;;;;;;;;;21.20;52.00;;;;;;5071668;28;1588;-67
2022/01/23 06:56:21;;;;;;;;;;;21.20;52.00;;;;;;5051419;28;1448;-67
2022/01/23 06:58:47;;;;;;;;;;;21.20;52.00;;;;;;5061590;28;1686;-65
2022/01/23 07:01:12;;;;;;;;;;;21.20;52.00;;;;;;5072508;28;1438;-64
2022/01/23 07:03:38;;;;;;;;;;;21.20;52.10;;;;;;5072913;28;1390;-66
2022/01/23 07:06:03;;;;;;;;;;;21.20;52.10;;;;;;5072610;28;1372;-66
2022/01/23 07:08:29;;;;;;;;;;;21.20;52.10;;;;;;5071368;28;1354;-63
2022/01/23 07:10:54;;;;;;;;;;;21.20;52.20;;;;;;5071022;28;1961;-64
2022/01/23 07:13:20;;;;;;;;;;;21.10;52.20;;;;;;5072622;28;1683;-64
2022/01/23 07:15:46;;;;;;;;;;;21.10;52.30;;;;;;5072734;28;1686;-68
2022/01/23 07:18:11;;;;;;;;;;;21.10;52.30;;;;;;5071022;28;1667;-67
2022/01/23 07:20:37;;;;;;;;;;;21.10;52.40;;;;;;5070529;28;1777;-64
2022/01/23 07:23:02;;;;;;;;;;;21.10;52.50;;;;;;5069119;28;1430;-67
2022/01/23 07:25:28;;;;;;;;;;;21.10;52.50;;;;;;5073913;28;1675;-66
2022/01/23 07:27:56;;;;;;;;;;;21.00;52.50;;;;;;5074839;28;1517;-66
2022/01/23 07:30:37;;;;;;;;;;;21.00;52.60;;;;;;5065881;28;1957;-67
2022/01/23 07:33:03;;;;;;;;;;;21.00;52.60;;;;;;5075008;28;1389;-67
2022/01/23 07:35:28;;;;;;;;;;;21.00;52.70;;;;;;5074992;28;1640;-66
2022/01/23 07:37:53;;;;;;;;;;;20.90;52.70;;;;;;5075821;28;1347;-66
2022/01/23 07:40:19;;;;;;;;;;;20.90;52.70;;;;;;5074674;28;1698;-67
2022/01/23 07:42:44;;;;;;;;;;;20.90;52.80;;;;;;5076158;28;1359;-68
2022/01/23 07:45:10;;;;;;;;;;;20.90;52.80;;;;;;5075936;28;1353;-68
2022/01/23 07:47:35;;;;;;;;;;;20.90;52.90;;;;;;5074522;28;1610;-65
2022/01/23 07:50:03;;;;;;;;;;;20.90;52.90;;;;;;5075614;28;1953;-66
2022/01/23 07:52:30;;;;;;;;;;;20.90;52.90;;;;;;5074806;28;1388;-67
2022/01/23 07:54:56;;;;;;;;;;;20.80;52.90;;;;;;5075830;28;1728;-66
2022/01/23 07:57:21;;;;;;;;;;;20.80;53.00;;;;;;5074551;28;1692;-67
2022/01/23 07:59:47;;;;;;;;;;;20.80;53.00;;;;;;5075512;28;1539;-68
2022/01/23 08:02:12;;;;;;;;;;;20.80;53.10;;;;;;5053733;28;1391;-70
2022/01/23 08:04:37;;;;;;;;;;;20.80;53.10;;;;;;5073637;28;1387;-69
2022/01/23 08:07:22;;;;;;;;;;;20.70;53.10;;;;;;5074585;28;1613;-69
2022/01/23 08:09:47;;;;;;;;;;;20.80;53.20;;;;;;5074623;28;1902;-69
2022/01/23 08:12:13;;;;;;;;;;;20.70;53.20;;;;;;5075410;28;1382;-69
2022/01/23 08:14:38;;;;;;;;;;;20.70;53.20;;;;;;5074413;28;1393;-69
2022/01/23 08:17:04;;;;;;;;;;;20.70;53.80;;;;;;5075168;28;1896;-68
2022/01/23 08:19:29;;;;;;;;;;;20.70;53.30;;;;;;5068356;28;2122;-68
2022/01/23 08:21:55;;;;;;;;;;;20.70;53.30;;;;;;5070594;28;1684;-68
2022/01/23 08:24:20;;;;;;;;;;;20.60;53.30;;;;;;5082705;28;1705;-68
2022/01/23 08:26:45;;;;;;;;;;;20.60;53.40;;;;;;5074878;28;1533;-68
2022/01/23 08:29:11;;;;;;;;;;;20.60;53.40;;;;;;5068012;28;1906;-68
2022/01/23 08:31:36;;;;;;;;;;;20.60;53.40;;;;;;5068397;28;1409;-68
2022/01/23 08:34:02;;;;;;;;;;;20.60;53.50;;;;;;5075201;28;1523;-68
2022/01/23 08:36:29;;;;;;;;;;;20.60;53.50;;;;;;5074941;28;1548;-69
2022/01/23 08:38:54;;;;;;;;;;;20.60;53.50;;;;;;5074884;28;1616;-69
2022/01/23 08:43:48;;;;;;;;;;;20.60;53.60;;;;;;5073823;28;1703;-68
2022/01/23 08:46:13;;;;;;;;;;;20.60;53.60;;;;;;5073867;28;1669;-69
2022/01/23 08:48:40;;;;;;;;;;;20.50;53.60;;;;;;5074665;28;1630;-69
2022/01/23 08:51:05;;;;;;;;;;;20.50;53.60;;;;;;5074702;28;1961;-68
2022/01/23 08:53:31;;;;;;;;;;;20.50;53.60;;;;;;5074804;28;1656;-69
2022/01/23 08:55:56;;;;;;;;;;;20.50;53.70;;;;;;5074736;28;1394;-70
2022/01/23 08:58:22;;;;;;;;;;;20.50;53.70;;;;;;5074455;28;1643;-69
2022/01/23 09:00:47;;;;;;;;;;;20.50;53.70;;;;;;5074511;28;1353;-68
2022/01/23 09:03:13;;;;;;;;;;;20.50;53.80;;;;;;5074580;28;1772;-67
2022/01/23 09:05:38;;;;;;;;;;;20.50;53.70;;;;;;5074967;28;1361;-69
2022/01/23 09:08:04;;;;;;;;;;;20.50;53.70;;;;;;5074316;28;1429;-69
2022/01/23 09:10:39;;;;;;;;;;;20.50;53.70;;;;;;5074219;28;1898;-68
2022/01/23 09:13:14;;;;;;;;;;;20.60;53.70;;;;;;5074212;28;1636;-69
2022/01/23 09:15:39;;;;;;;;;;;20.60;53.60;;;;;;5074535;28;1655;-68
2022/01/23 09:18:05;;;;;;;;;;;20.60;53.50;;;;;;5074048;28;1659;-69
2022/01/23 09:20:30;;;;;;;;;;;20.60;53.50;;;;;;5074083;28;1436;-68
2022/01/23 09:22:56;;;;;;;;;;;20.70;53.50;;;;;;5074132;28;1669;-68
2022/01/23 09:25:21;;;;;;;;;;;20.70;53.40;;;;;;5074284;28;1344;-69
2022/01/23 09:27:47;;;;;;;;;;;20.70;53.40;;;;;;5072528;28;1608;-69
2022/01/23 09:30:20;;;;;;;;;;;20.70;53.30;;;;;;5073993;28;1909;-69
2022/01/23 09:32:48;;;;;;;;;;;20.70;53.30;;;;;;5074112;28;1475;-69
2022/01/23 09:35:14;;;;;;;;;;;20.70;53.30;;;;;;5074138;28;1702;-69
2022/01/23 09:37:41;;;;;;;;;;;20.70;53.30;;;;;;5073793;28;1419;-69
2022/01/23 09:40:06;;;;;;;;;;;20.70;53.20;;;;;;5073702;28;1598;-68
2022/01/23 09:42:39;;;;;;;;;;;20.70;53.20;;;;;;5073677;28;1582;-69
2022/01/23 09:45:06;;;;;;;;;;;20.70;53.20;;;;;;5072714;28;1652;-67
2022/01/23 09:47:31;;;;;;;;;;;20.70;53.20;;;;;;5073642;28;1618;-68
2022/01/23 09:49:58;;;;;;;;;;;20.70;53.20;;;;;;5072421;28;1957;-67
2022/01/23 09:52:23;;;;;;;;;;;20.70;53.80;;;;;;5073512;28;1383;-69
2022/01/23 09:54:56;;;;;;;;;;;20.70;53.30;;;;;;5072267;28;1636;-69
2022/01/23 09:57:24;;;;;;;;;;;20.70;53.30;;;;;;5073324;28;1537;-69
2022/01/23 09:59:51;;;;;;;;;;;20.70;53.30;;;;;;5073319;28;1658;-69
2022/01/23 10:02:16;;;;;;;;;;;20.70;53.30;;;;;;5073561;28;1342;-69
2022/01/23 10:04:42;;;;;;;;;;;20.70;53.30;;;;;;5073393;28;1713;-69
2022/01/23 10:07:07;;;;;;;;;;;20.70;53.40;;;;;;5070789;28;1988;-67
2022/01/23 10:09:33;;;;;;;;;;;20.60;53.40;;;;;;5063182;28;1905;-68
2022/01/23 10:11:59;;;;;;;;;;;20.70;53.40;;;;;;5070952;28;1633;-65
2022/01/23 10:14:24;;;;;;;;;;;20.60;53.40;;;;;;5071183;28;1449;-66
2022/01/23 10:16:50;;;;;;;;;;;20.60;53.40;;;;;;5073439;28;1585;-67
2022/01/23 10:19:16;;;;;;;;;;;20.60;53.40;;;;;;5071730;28;1686;-69
2022/01/23 10:21:43;;;;;;;;;;;20.60;53.50;;;;;;5073074;28;1458;-66
2022/01/23 10:24:10;;;;;;;;;;;20.60;53.50;;;;;;5073162;28;1576;-65
2022/01/23 10:26:46;;;;;;;;;;;20.60;53.50;;;;;;5073187;28;846;-68
2022/01/23 10:29:16;;;;;;;;;;;20.60;53.50;;;;;;5072661;28;1914;-65
2022/01/23 10:32:00;;;;;;;;;;;20.60;53.40;;;;;;5071908;28;1666;-66
2022/01/23 10:34:41;;;;;;;;;;;20.70;53.50;;;;;;5072989;28;1697;-66
2022/01/23 10:37:07;;;;;;;;;;;20.70;53.40;;;;;;5072873;28;1547;-68
2022/01/23 10:39:42;;;;;;;;;;;20.70;53.40;;;;;;5071803;28;1587;-66
2022/01/23 10:42:52;;;;;;;;;;;20.70;53.30;;;;;;5071492;28;1428;-66
2022/01/23 10:50:51;;;;;;;;;;;20.80;53.20;;;;;;5071666;28;1902;-66
2022/01/23 10:53:16;;;;;;;;;;;20.80;53.20;;;;;;5071705;28;1702;-65
2022/01/23 10:55:43;;;;;;;;;;;20.90;53.10;;;;;;5072932;28;1626;-66
2022/01/23 10:58:17;;;;;;;;;;;20.90;53.10;;;;;;5071358;28;1510;-65
2022/01/23 11:00:42;;;;;;;;;;;20.90;53.00;;;;;;5074778;28;1332;-65
2022/01/23 11:03:13;;;;;;;;;;;20.90;53.00;;;;;;5076873;28;1678;-67
2022/01/23 11:05:39;;;;;;;;;;;20.90;53.00;;;;;;5065437;28;1443;-66
2022/01/23 11:08:23;;;;;;;;;;;20.90;52.90;;;;;;5076256;28;1740;-67
2022/01/23 11:10:57;;;;;;;;;;;20.90;53.50;;;;;;5076438;28;1903;-67
2022/01/23 11:19:23;;;;;;;;;;;21.00;52.90;;;;;;5076379;28;1606;-67
2022/01/23 11:21:48;;;;;;;;;;;21.00;52.90;;;;;;5075412;28;1398;-66
2022/01/23 11:24:14;;;;;;;;;;;20.90;52.90;;;;;;5075291;28;1658;-67
2022/01/23 11:26:39;;;;;;;;;;;20.90;52.90;;;;;;5076441;28;1657;-67
2022/01/23 11:29:12;;;;;;;;;;;20.90;53.00;;;;;;5070243;28;1949;-67
2022/01/23 11:31:39;;;;;;;;;;;20.90;53.00;;;;;;5068383;28;1485;-65
2022/01/23 11:34:06;;;;;;;;;;;20.90;53.00;;;;;;5069807;28;2326;-66
2022/01/23 11:36:31;;;;;;;;;;;20.90;53.00;;;;;;5075133;28;1490;-65
2022/01/23 11:39:08;;;;;;;;;;;20.90;53.00;;;;;;5054678;28;1613;-66
2022/01/23 11:55:46;;;;;;;;;;;20.80;53.30;;;;;;5066621;28;1012;-66
2022/01/23 11:58:31;;;;;;;;;;;20.80;53.30;;;;;;5053353;28;1535;-66
2022/01/23 12:01:15;;;;;;;;;;;20.70;53.30;;;;;;5070804;28;1371;-66
2022/01/23 12:03:52;;;;;;;;;;;20.80;53.40;;;;;;5064892;28;1961;-66
2022/01/23 12:06:20;;;;;;;;;;;20.80;53.30;;;;;;5071817;28;2014;-66
2022/01/23 12:08:45;;;;;;;;;;;20.80;53.30;;;;;;5075025;28;1187;-66
2022/01/23 12:16:26;;;;;;;;;;;20.90;53.20;;;;;;5075461;28;1380;-67
2022/01/23 12:18:52;;;;;;;;;;;20.90;53.10;;;;;;5074007;28;1125;-66
2022/01/23 12:21:30;;;;;;;;;;;20.90;53.10;;;;;;5075498;28;1355;-65
2022/01/23 12:24:03;;;;;;;;;;;20.90;53.10;;;;;;5068400;28;1386;-66
2022/01/23 12:26:28;;;;;;;;;;;20.90;53.10;;;;;;5066482;28;1202;-65
2022/01/23 12:28:54;;;;;;;;;;;20.90;53.10;;;;;;5068551;28;1439;-66
2022/01/23 12:31:23;;;;;;;;;;;20.90;53.10;;;;;;5066606;28;1961;-68
2022/01/23 12:33:49;;;;;;;;;;;20.90;53.10;;;;;;5065978;28;1268;-68
2022/01/23 12:36:15;;;;;;;;;;;20.90;53.10;;;;;;5067565;28;1156;-67
2022/01/23 12:38:41;;;;;;;;;;;20.90;53.20;;;;;;5069928;28;1274;-67
2022/01/23 12:41:14;;;;;;;;;;;20.90;53.20;;;;;;5068876;28;1389;-67
2022/01/23 12:43:39;;;;;;;;;;;20.80;53.20;;;;;;5066452;28;1289;-66
2022/01/23 12:46:05;;;;;;;;;;;20.80;53.20;;;;;;5063938;28;1810;-66
2022/01/23 12:48:33;;;;;;;;;;;20.80;53.20;;;;;;5064961;28;1949;-66
2022/01/23 12:51:09;;;;;;;;;;;20.80;53.30;;;;;;5068735;28;1959;-66
2022/01/23 12:53:38;;;;;;;;;;;20.80;53.30;;;;;;5072046;28;1375;-66
2022/01/23 12:56:04;;;;;;;;;;;20.80;53.30;;;;;;5069846;28;1262;-66
2022/01/23 12:58:32;;;;;;;;;;;20.80;53.30;;;;;;5073117;28;1364;-67
2022/01/23 13:00:59;;;;;;;;;;;20.80;53.90;;;;;;5074456;28;1275;-66
2022/01/23 13:03:25;;;;;;;;;;;20.80;53.40;;;;;;5074394;28;1449;-66
2022/01/23 13:05:50;;;;;;;;;;;20.80;53.40;;;;;;5074455;28;1154;-66
2022/01/23 13:08:24;;;;;;;;;;;20.80;53.30;;;;;;5072108;28;1202;-66
2022/01/23 13:13:53;;;;;;;;;;;20.80;53.40;;;;;;5037524;28;1177;-66
2022/01/23 13:16:36;;;;;;;;;;;20.80;53.40;;;;;;5062442;28;1265;-66
2022/01/23 13:19:32;;;;;;;;;;;20.80;53.40;;;;;;5073629;28;1280;-66
2022/01/23 13:30:22;;;;;;;;;;;20.70;53.40;;;;;;5022308;28;1907;-67
2022/01/23 13:32:50;;;;;;;;;;;20.70;53.50;;;;;;5071620;28;1918;-67
2022/01/23 13:35:17;;;;;;;;;;;20.70;53.50;;;;;;5069769;28;1276;-68
2022/01/23 13:37:43;;;;;;;;;;;20.70;53.50;;;;;;5071928;28;1376;-68
2022/01/23 13:40:12;;;;;;;;;;;20.70;53.50;;;;;;5069643;28;1343;-67
2022/01/23 13:59:32;;;;;;;;;;;20.60;53.60;;;;;;5065676;28;1101;-66
2022/01/23 14:04:25;;;;;;;;;;;20.60;53.70;;;;;;5071814;28;1060;-66
2022/01/23 14:06:50;;;;;;;;;;;20.60;53.70;;;;;;5072793;28;1286;-66
2022/01/23 14:09:16;;;;;;;;;;;20.60;53.70;;;;;;5072507;28;1965;-67
2022/01/23 14:11:43;;;;;;;;;;;20.60;53.70;;;;;;5071717;28;1258;-67
2022/01/23 14:14:15;;;;;;;;;;;20.60;53.80;;;;;;5065823;28;1352;-68
2022/01/23 14:16:42;;;;;;;;;;;20.60;53.70;;;;;;5072855;28;1098;-66
2022/01/23 14:19:16;;;;;;;;;;;20.60;53.80;;;;;;5071269;28;1370;-65
2022/01/23 14:21:42;;;;;;;;;;;20.60;53.80;;;;;;5072632;28;1332;-68
2022/01/23 14:24:08;;;;;;;;;;;20.60;53.80;;;;;;5071642;28;1257;-68
2022/01/23 14:26:33;;;;;;;;;;;20.60;53.90;;;;;;5072810;28;1059;-66
2022/01/23 14:29:03;;;;;;;;;;;20.50;53.80;;;;;;5067337;28;1054;-68
2022/01/23 14:31:36;;;;;;;;;;;20.50;53.80;;;;;;5064748;28;1373;-67
2022/01/23 14:34:03;;;;;;;;;;;20.50;53.90;;;;;;5072381;28;1359;-67
2022/01/23 14:36:33;;;;;;;;;;;20.50;53.90;;;;;;5072175;28;1314;-68
2022/01/23 14:38:59;;;;;;;;;;;20.50;53.90;;;;;;5071822;28;1367;-68
2022/01/23 14:41:26;;;;;;;;;;;20.50;53.90;;;;;;5072654;28;1373;-68
2022/01/23 14:43:52;;;;;;;;;;;20.50;53.90;;;;;;5071100;28;1406;-67
2022/01/23 14:46:17;;;;;;;;;;;20.50;54.00;;;;;;5072510;28;1438;-68
2022/01/23 14:48:46;;;;;;;;;;;20.50;54.00;;;;;;5072242;28;1308;-68
2022/01/23 14:51:14;;;;;;;;;;;20.50;54.00;;;;;;5071527;28;1898;-67
2022/01/23 14:53:40;;;;;;;;;;;20.40;54.00;;;;;;5071166;28;1340;-68
2022/01/23 14:56:06;;;;;;;;;;;20.40;54.00;;;;;;5072782;28;1296;-67
2022/01/23 14:58:33;;;;;;;;;;;20.40;54.00;;;;;;5072754;28;1344;-67
2022/01/23 15:00:58;;;;;;;;;;;20.40;54.00;;;;;;5070812;28;1694;-67
2022/01/23 15:03:25;;;;;;;;;;;20.40;54.10;;;;;;5072648;28;1359;-68
2022/01/23 15:05:51;;;;;;;;;;;20.40;54.10;;;;;;5071166;28;1310;-68
2022/01/23 15:08:21;;;;;;;;;;;20.40;54.10;;;;;;5070881;28;1084;-68
2022/01/23 15:10:48;;;;;;;;;;;20.40;54.10;;;;;;5072296;28;1969;-68
2022/01/23 15:13:14;;;;;;;;;;;20.40;54.10;;;;;;5069516;28;1076;-67
2022/01/23 15:15:39;;;;;;;;;;;20.30;54.10;;;;;;5067279;28;1072;-67
2022/01/23 15:18:05;;;;;;;;;;;20.40;54.20;;;;;;5070680;28;1031;-67
2022/01/23 15:20:33;;;;;;;;;;;20.30;54.20;;;;;;5072319;28;1324;-67
2022/01/23 15:22:59;;;;;;;;;;;20.30;54.20;;;;;;5072038;28;1322;-66
2022/01/23 15:25:24;;;;;;;;;;;20.30;54.20;;;;;;5072622;28;1193;-67
2022/01/23 15:27:50;;;;;;;;;;;20.30;54.20;;;;;;5072268;28;1269;-67
2022/01/23 15:30:16;;;;;;;;;;;20.30;54.20;;;;;;5058114;28;1971;-66
2022/01/23 15:32:44;;;;;;;;;;;20.30;54.30;;;;;;5072053;28;1304;-67
2022/01/23 15:35:10;;;;;;;;;;;20.30;54.30;;;;;;5070719;28;1338;-67
2022/01/23 15:37:37;;;;;;;;;;;20.30;54.30;;;;;;5070677;28;1095;-67
2022/01/23 15:40:04;;;;;;;;;;;20.30;54.30;;;;;;5071916;28;1301;-67
2022/01/23 15:42:30;;;;;;;;;;;20.30;54.30;;;;;;5070479;28;1335;-67
2022/01/23 15:44:55;;;;;;;;;;;20.30;54.30;;;;;;5065266;28;1134;-68
2022/01/23 15:47:21;;;;;;;;;;;20.30;54.30;;;;;;5070341;28;1031;-66
2022/01/23 15:49:47;;;;;;;;;;;20.30;54.30;;;;;;5073292;28;1905;-66
2022/01/23 15:52:13;;;;;;;;;;;20.30;54.40;;;;;;5055963;28;1945;-66
2022/01/23 15:54:39;;;;;;;;;;;20.30;54.40;;;;;;5073904;28;1067;-67
2022/01/23 15:57:04;;;;;;;;;;;20.20;54.40;;;;;;5069466;28;1186;-67
2022/01/23 15:59:30;;;;;;;;;;;20.20;54.40;;;;;;5068985;28;1011;-67
2022/01/23 16:01:56;;;;;;;;;;;20.20;54.40;;;;;;5064081;28;1283;-67
2022/01/23 16:04:22;;;;;;;;;;;20.20;54.40;;;;;;5072943;28;1341;-66
2022/01/23 16:06:47;;;;;;;;;;;20.30;54.50;;;;;;5064925;28;1275;-67
2022/01/23 16:09:13;;;;;;;;;;;20.20;54.50;;;;;;5075032;28;1910;-68
2022/01/23 16:11:39;;;;;;;;;;;20.20;54.50;;;;;;5072280;22;3813;-68
2022/01/23 16:14:05;;;;;;;;;;;20.20;54.50;;;;;;5044222;28;926;-69
2022/01/23 16:16:30;;;;;;;;;;;20.20;54.50;;;;;;5075594;28;1282;-68
2022/01/23 16:18:56;;;;;;;;;;;20.20;54.50;;;;;;5075277;28;1310;-68
2022/01/23 16:21:23;;;;;;;;;;;20.20;54.60;;;;;;5075421;28;1384;-69
2022/01/23 16:23:49;;;;;;;;;;;20.20;54.60;;;;;;5057878;28;1668;-71
2022/01/23 16:26:16;;;;;;;;;;;20.20;54.60;;;;;;5073755;28;1392;-66
2022/01/23 16:28:43;;;;;;;;;;;20.20;54.60;;;;;;5049219;28;1037;-68
2022/01/23 16:31:09;;;;;;;;;;;20.20;54.60;;;;;;5060708;28;1917;-67
2022/01/23 16:33:35;;;;;;;;;;;20.20;54.60;;;;;;5054917;28;1063;-67
2022/01/23 16:36:02;;;;;;;;;;;20.20;54.60;;;;;;5054938;28;1264;-68
2022/01/23 16:38:28;;;;;;;;;;;20.20;54.60;;;;;;5071458;28;1063;-68
2022/01/23 16:40:56;;;;;;;;;;;20.20;54.60;;;;;;5073574;28;1295;-65
2022/01/23 16:43:23;;;;;;;;;;;20.20;54.60;;;;;;5073605;28;1283;-66
2022/01/23 16:45:51;;;;;;;;;;;20.20;54.60;;;;;;5073976;28;1081;-68
2022/01/23 16:48:17;;;;;;;;;;;20.10;54.60;;;;;;5055424;28;1119;-67
2022/01/23 16:50:43;;;;;;;;;;;20.10;54.60;;;;;;5073354;28;1910;-69
2022/01/23 16:53:09;;;;;;;;;;;20.10;54.60;;;;;;5073116;28;1182;-68
2022/01/23 16:55:34;;;;;;;;;;;20.10;54.60;;;;;;5072984;28;1055;-68
2022/01/23 16:58:02;;;;;;;;;;;20.10;54.60;;;;;;5072592;28;1318;-68
2022/01/23 17:00:28;;;;;;;;;;;20.20;54.70;;;;;;5074416;28;1260;-67
2022/01/23 17:02:54;;;;;;;;;;;20.10;54.60;;;;;;5073313;28;1382;-66
2022/01/23 17:05:20;;;;;;;;;;;20.10;54.60;;;;;;5065646;28;1097;-68
2022/01/23 17:07:46;;;;;;;;;;;20.10;54.70;;;;;;5054147;28;1300;-67
2022/01/23 17:10:12;;;;;;;;;;;20.10;54.60;;;;;;5053973;28;1957;-67
2022/01/23 17:12:40;;;;;;;;;;;20.10;54.60;;;;;;5053140;28;1330;-68
2022/01/23 17:15:05;;;;;;;;;;;20.10;54.60;;;;;;5054334;28;866;-66
2022/01/23 17:17:31;;;;;;;;;;;20.10;54.70;;;;;;5058768;28;1349;-66
2022/01/23 17:19:57;;;;;;;;;;;20.10;54.70;;;;;;5066747;28;1254;-68
2022/01/23 17:22:23;;;;;;;;;;;20.10;54.70;;;;;;5060061;28;1389;-67
2022/01/23 17:24:48;;;;;;;;;;;20.10;54.70;;;;;;5065511;28;1227;-67
2022/01/23 17:27:14;;;;;;;;;;;20.10;54.70;;;;;;5059735;28;1759;-67
2022/01/23 17:29:40;;;;;;;;;;;20.10;54.70;;;;;;5053559;28;2436;-67
2022/01/23 17:32:08;;;;;;;;;;;20.10;54.70;;;;;;5065723;28;1365;-69
2022/01/23 17:34:35;;;;;;;;;;;20.10;54.70;;;;;;5062889;28;1152;-68
2022/01/23 17:37:00;;;;;;;;;;;20.10;54.70;;;;;;5061385;28;1384;-69
2022/01/23 17:39:27;;;;;;;;;;;20.10;54.70;;;;;;5059707;28;1140;-69
2022/01/23 17:41:53;;;;;;;;;;;20.10;54.70;;;;;;5049233;28;1247;-68
2022/01/23 17:44:20;;;;;;;;;;;20.10;54.80;;;;;;5054037;28;1254;-70
2022/01/23 17:46:53;;;;;;;;;;;20.10;54.70;;;;;;5049382;28;1411;-70
2022/01/23 17:49:33;;;;;;;;;;;20.10;54.80;;;;;;5054302;28;1898;-69
2022/01/23 17:51:59;;;;;;;;;;;20.10;54.70;;;;;;5052896;28;1345;-68